createdAt,value
2018-02-01T00:00:08.946Z,1.73
2018-02-01T00:00:42.797Z,1.90
2018-02-01T00:01:16.685Z,1.65
2018-02-01T00:01:50.591Z,1.75
2018-02-01T00:02:24.454Z,1.62
2018-02-01T00:02:58.349Z,1.30
2018-02-01T00:03:32.404Z,1.75
2018-02-01T00:04:07.697Z,1.67
2018-02-01T00:04:41.592Z,1.65
2018-02-01T00:05:15.481Z,1.77
2018-02-01T00:05:49.458Z,1.90
2018-02-01T00:06:23.329Z,1.50
2018-02-01T00:06:57.227Z,1.67
2018-02-01T00:07:31.107Z,1.58
2018-02-01T00:08:05.219Z,1.45
2018-02-01T00:08:39.363Z,1.45
2018-02-01T00:09:13.734Z,1.70
2018-02-01T00:09:47.580Z,1.60
2018-02-01T00:10:21.480Z,1.23
2018-02-01T00:10:55.425Z,1.50
2018-02-01T00:11:29.326Z,1.70
2018-02-01T00:12:03.239Z,1.60
2018-02-01T00:12:37.112Z,1.23
2018-02-01T00:13:11.077Z,1.75
2018-02-01T00:13:45.128Z,1.42
2018-02-01T00:14:19.031Z,1.33
2018-02-01T00:14:52.875Z,1.60
2018-02-01T00:15:26.812Z,1.40
2018-02-01T00:16:00.657Z,1.50
2018-02-01T00:16:34.549Z,1.33
2018-02-01T00:17:08.419Z,1.20
2018-02-01T00:17:42.707Z,1.37
2018-02-01T00:18:16.559Z,1.40
2018-02-01T00:18:50.498Z,1.58
2018-02-01T00:19:24.583Z,1.40
2018-02-01T00:19:58.499Z,1.40
2018-02-01T00:20:32.515Z,1.70
2018-02-01T00:21:06.372Z,1.42
2018-02-01T00:21:40.246Z,1.45
2018-02-01T00:22:15.083Z,1.30
2018-02-01T00:22:48.975Z,1.40
2018-02-01T00:23:22.860Z,1.65
2018-02-01T00:23:56.808Z,1.50
2018-02-01T00:24:30.717Z,1.55
2018-02-01T00:25:04.555Z,1.50
2018-02-01T00:25:38.450Z,1.60
2018-02-01T00:26:12.346Z,1.30
2018-02-01T00:26:46.222Z,1.48
2018-02-01T00:27:20.113Z,1.10
2018-02-01T00:27:54.012Z,1.40
2018-02-01T00:28:27.875Z,1.40
2018-02-01T00:29:02.236Z,1.50
2018-02-01T00:29:43.042Z,1.83
2018-02-01T00:30:17.255Z,1.50
2018-02-01T00:30:51.248Z,1.33
2018-02-01T00:31:25.182Z,1.65
2018-02-01T00:31:59.296Z,1.40
2018-02-01T00:32:33.255Z,1.70
2018-02-01T00:33:07.157Z,1.58
2018-02-01T00:33:41.028Z,1.50
2018-02-01T00:34:14.904Z,1.33
2018-02-01T00:34:49.033Z,1.48
2018-02-01T00:35:23.081Z,1.60
2018-02-01T00:36:12.890Z,1.50
2018-02-01T00:36:47.036Z,1.80
2018-02-01T00:37:20.969Z,1.70
2018-02-01T00:37:54.922Z,1.48
2018-02-01T00:38:28.777Z,1.45
2018-02-01T00:39:02.676Z,1.37
2018-02-01T00:39:36.532Z,1.50
2018-02-01T00:40:10.532Z,1.60
2018-02-01T00:40:44.506Z,1.65
2018-02-01T00:41:18.432Z,1.50
2018-02-01T00:41:52.485Z,1.55
2018-02-01T00:42:26.328Z,1.55
2018-02-01T00:43:00.275Z,1.42
2018-02-01T00:43:34.728Z,1.40
2018-02-01T00:44:08.673Z,1.55
2018-02-01T00:44:42.555Z,1.42
2018-02-01T00:45:16.593Z,1.30
2018-02-01T00:45:50.562Z,1.42
2018-02-01T00:46:24.562Z,1.50
2018-02-01T00:46:58.440Z,1.62
2018-02-01T00:47:32.379Z,1.55
2018-02-01T00:48:08.016Z,1.52
2018-02-01T00:48:41.888Z,1.62
2018-02-01T00:49:15.752Z,1.55
2018-02-01T00:49:49.669Z,1.67
2018-02-01T00:50:23.538Z,1.60
2018-02-01T00:50:57.597Z,2.10
2018-02-01T00:51:31.564Z,1.40
2018-02-01T00:52:05.712Z,1.25
2018-02-01T00:52:39.587Z,1.60
2018-02-01T00:53:13.515Z,1.30
2018-02-01T00:53:47.572Z,1.37
2018-02-01T00:54:21.459Z,1.50
2018-02-01T00:54:55.559Z,1.60
2018-02-01T00:55:29.467Z,1.60
2018-02-01T00:56:03.664Z,1.40
2018-02-01T00:56:37.695Z,1.42
2018-02-01T00:57:12.074Z,1.12
2018-02-01T00:57:45.962Z,1.30
2018-02-01T00:58:19.830Z,1.20
2018-02-01T00:58:53.804Z,1.48
2018-02-01T00:59:28.322Z,1.40
2018-02-01T01:00:03.053Z,1.52
2018-02-01T01:00:36.926Z,1.27
2018-02-01T01:01:10.863Z,1.48
2018-02-01T01:01:44.889Z,1.10
2018-02-01T01:02:18.801Z,1.40
2018-02-01T01:02:52.858Z,1.42
2018-02-01T01:03:26.724Z,1.10
2018-02-01T01:04:00.593Z,1.62
2018-02-01T01:04:34.445Z,1.42
2018-02-01T01:05:08.383Z,1.30
2018-02-01T01:05:42.625Z,1.58
2018-02-01T01:06:16.585Z,1.33
2018-02-01T01:06:50.504Z,1.48
2018-02-01T01:07:24.439Z,1.30
2018-02-01T01:07:58.362Z,1.40
2018-02-01T01:08:32.287Z,1.40
2018-02-01T01:09:06.204Z,1.50
2018-02-01T01:09:41.619Z,1.40
2018-02-01T01:10:16.946Z,1.62
2018-02-01T01:10:51.710Z,1.30
2018-02-01T01:11:27.372Z,1.23
2018-02-01T01:12:03.566Z,1.30
2018-02-01T01:12:37.585Z,1.30
2018-02-01T01:13:11.480Z,1.58
2018-02-01T01:13:45.373Z,1.40
2018-02-01T01:14:19.224Z,1.20
2018-02-01T01:14:53.103Z,1.70
2018-02-01T01:15:26.985Z,1.40
2018-02-01T01:16:01.161Z,1.37
2018-02-01T01:16:35.336Z,1.40
2018-02-01T01:17:09.415Z,1.17
2018-02-01T01:17:43.390Z,1.42
2018-02-01T01:18:17.299Z,1.45
2018-02-01T01:18:51.274Z,1.40
2018-02-01T01:19:25.362Z,1.30
2018-02-01T01:19:59.399Z,1.20
2018-02-01T01:20:33.277Z,1.80
2018-02-01T01:21:07.185Z,1.50
2018-02-01T01:21:41.078Z,1.50
2018-02-01T01:22:15.008Z,1.25
2018-02-01T01:22:48.871Z,1.60
2018-02-01T01:23:22.749Z,1.55
2018-02-01T01:23:56.664Z,1.20
2018-02-01T01:24:30.710Z,1.40
2018-02-01T01:25:04.561Z,1.50
2018-02-01T01:25:38.425Z,1.20
2018-02-01T01:26:12.313Z,1.30
2018-02-01T01:26:46.173Z,1.30
2018-02-01T01:27:20.061Z,1.45
2018-02-01T01:27:54.039Z,1.45
2018-02-01T01:28:27.984Z,1.60
2018-02-01T01:29:01.929Z,1.30
2018-02-01T01:29:35.858Z,1.30
2018-02-01T01:30:09.737Z,1.42
2018-02-01T01:30:44.875Z,1.37
2018-02-01T01:31:18.781Z,1.35
2018-02-01T01:31:52.632Z,1.30
2018-02-01T01:32:26.574Z,1.62
2018-02-01T01:33:00.621Z,1.42
2018-02-01T01:33:34.571Z,1.50
2018-02-01T01:34:08.506Z,1.35
2018-02-01T01:34:52.582Z,1.70
2018-02-01T01:35:26.635Z,1.40
2018-02-01T01:36:00.530Z,1.20
2018-02-01T01:36:34.626Z,1.40
2018-02-01T01:37:08.528Z,1.95
2018-02-01T01:37:42.421Z,1.92
2018-02-01T01:38:16.276Z,1.37
2018-02-01T01:38:50.415Z,1.50
2018-02-01T01:39:24.486Z,1.50
2018-02-01T01:39:58.421Z,1.42
2018-02-01T01:40:32.276Z,1.50
2018-02-01T01:41:06.205Z,1.20
2018-02-01T01:41:40.194Z,1.42
2018-02-01T01:42:14.211Z,1.20
2018-02-01T01:42:48.108Z,1.30
2018-02-01T01:43:22.309Z,1.30
2018-02-01T01:43:56.308Z,1.75
2018-02-01T01:44:30.418Z,1.20
2018-02-01T01:45:04.566Z,1.12
2018-02-01T01:45:38.495Z,1.50
2018-02-01T01:46:12.476Z,1.65
2018-02-01T01:46:46.348Z,1.40
2018-02-01T01:47:20.332Z,1.60
2018-02-01T01:47:54.286Z,1.50
2018-02-01T01:48:28.168Z,1.30
2018-02-01T01:49:02.075Z,1.75
2018-02-01T01:49:35.964Z,1.58
2018-02-01T01:50:09.947Z,1.52
2018-02-01T01:50:44.066Z,1.58
2018-02-01T01:51:17.943Z,1.55
2018-02-01T01:51:51.842Z,1.70
2018-02-01T01:52:26.876Z,1.70
2018-02-01T01:53:00.772Z,1.80
2018-02-01T01:53:34.665Z,2.10
2018-02-01T01:54:08.541Z,1.90
2018-02-01T01:54:42.412Z,1.85
2018-02-01T01:55:16.384Z,1.20
2018-02-01T01:55:51.221Z,1.50
2018-02-01T01:56:25.146Z,1.73
2018-02-01T01:56:59.037Z,2.20
2018-02-01T01:57:32.912Z,1.90
2018-02-01T01:58:08.229Z,1.52
2018-02-01T01:58:42.488Z,1.80
2018-02-01T01:59:16.417Z,2.05
2018-02-01T01:59:50.576Z,2.20
2018-02-01T02:00:24.933Z,1.75
2018-02-01T02:00:58.914Z,1.55
2018-02-01T02:01:32.779Z,1.70
2018-02-01T02:02:06.666Z,1.45
2018-02-01T02:02:40.750Z,1.27
2018-02-01T02:03:14.596Z,1.27
2018-02-01T02:03:48.723Z,1.58
2018-02-01T02:04:22.787Z,1.48
2018-02-01T02:04:56.795Z,1.60
2018-02-01T02:05:30.690Z,2.15
2018-02-01T02:06:04.631Z,1.80
2018-02-01T02:06:38.837Z,1.52
2018-02-01T02:07:12.893Z,1.55
2018-02-01T02:07:47.127Z,1.85
2018-02-01T02:08:21.087Z,1.45
2018-02-01T02:08:54.938Z,1.90
2018-02-01T02:09:28.944Z,1.50
2018-02-01T02:10:02.965Z,1.60
2018-02-01T02:10:37.590Z,1.40
2018-02-01T02:11:11.485Z,1.45
2018-02-01T02:11:45.480Z,1.50
2018-02-01T02:12:19.492Z,1.20
2018-02-01T02:12:53.372Z,1.80
2018-02-01T02:13:27.546Z,1.40
2018-02-01T02:14:01.401Z,1.65
2018-02-01T02:14:35.301Z,1.62
2018-02-01T02:15:09.190Z,1.83
2018-02-01T02:15:43.337Z,1.58
2018-02-01T02:16:18.643Z,1.80
2018-02-01T02:16:52.517Z,1.62
2018-02-01T02:17:26.533Z,1.87
2018-02-01T02:18:00.575Z,1.75
2018-02-01T02:18:34.572Z,1.60
2018-02-01T02:19:08.488Z,1.75
2018-02-01T02:19:42.420Z,1.45
2018-02-01T02:20:16.313Z,1.30
2018-02-01T02:20:50.173Z,1.40
2018-02-01T02:21:24.207Z,1.50
2018-02-01T02:21:58.248Z,1.50
2018-02-01T02:22:32.218Z,1.55
2018-02-01T02:23:06.200Z,1.42
2018-02-01T02:23:40.205Z,1.50
2018-02-01T02:24:14.094Z,1.40
2018-02-01T02:24:48.193Z,1.30
2018-02-01T02:25:26.177Z,1.50
2018-02-01T02:26:00.312Z,1.40
2018-02-01T02:26:34.488Z,1.77
2018-02-01T02:27:08.358Z,1.80
2018-02-01T02:27:42.323Z,1.50
2018-02-01T02:28:16.170Z,1.45
2018-02-01T02:28:50.102Z,1.42
2018-02-01T02:29:24.120Z,1.50
2018-02-01T02:29:58.093Z,1.35
2018-02-01T02:30:32.773Z,1.80
2018-02-01T02:31:06.625Z,1.80
2018-02-01T02:31:40.612Z,1.55
2018-02-01T02:32:20.544Z,1.90
2018-02-01T02:32:54.501Z,1.42
2018-02-01T02:33:28.420Z,1.67
2018-02-01T02:34:02.487Z,1.77
2018-02-01T02:34:36.523Z,1.45
2018-02-01T02:35:10.519Z,1.75
2018-02-01T02:35:44.426Z,1.80
2018-02-01T02:36:18.351Z,1.95
2018-02-01T02:36:52.373Z,1.80
2018-02-01T02:37:26.320Z,1.67
2018-02-01T02:38:00.272Z,1.75
2018-02-01T02:38:35.079Z,1.70
2018-02-01T02:39:09.146Z,2.00
2018-02-01T02:39:43.168Z,1.83
2018-02-01T02:40:17.048Z,1.70
2018-02-01T02:40:50.950Z,1.73
2018-02-01T02:41:25.021Z,1.67
2018-02-01T02:41:58.880Z,1.90
2018-02-01T02:42:32.741Z,1.77
2018-02-01T02:43:06.595Z,1.50
2018-02-01T02:43:40.518Z,1.50
2018-02-01T02:44:14.437Z,1.60
2018-02-01T02:44:48.457Z,1.85
2018-02-01T02:45:22.706Z,1.50
2018-02-01T02:45:56.733Z,1.70
2018-02-01T02:46:30.905Z,1.60
2018-02-01T02:47:05.135Z,1.85
2018-02-01T02:47:39.009Z,1.60
2018-02-01T02:48:12.973Z,2.00
2018-02-01T02:48:46.874Z,1.83
2018-02-01T02:49:20.947Z,1.80
2018-02-01T02:49:54.994Z,1.90
2018-02-01T02:50:28.940Z,1.70
2018-02-01T02:51:02.801Z,1.87
2018-02-01T02:51:36.845Z,1.60
2018-02-01T02:52:10.704Z,1.60
2018-02-01T02:52:44.585Z,1.77
2018-02-01T02:53:18.591Z,1.70
2018-02-01T02:53:52.581Z,1.65
2018-02-01T02:54:26.518Z,1.98
2018-02-01T02:55:00.436Z,1.65
2018-02-01T02:55:34.322Z,2.00
2018-02-01T02:56:08.240Z,1.40
2018-02-01T02:56:42.774Z,1.60
2018-02-01T02:57:16.713Z,1.52
2018-02-01T02:57:50.604Z,1.40
2018-02-01T02:58:24.541Z,1.48
2018-02-01T02:58:58.456Z,1.60
2018-02-01T02:59:33.351Z,1.55
2018-02-01T03:00:07.264Z,2.00
2018-02-01T03:00:41.184Z,1.83
2018-02-01T03:01:15.208Z,1.67
2018-02-01T03:01:49.201Z,1.75
2018-02-01T03:02:23.112Z,1.90
2018-02-01T03:02:57.011Z,1.65
2018-02-01T03:03:30.960Z,1.73
2018-02-01T03:04:05.174Z,1.90
2018-02-01T03:04:39.293Z,1.55
2018-02-01T03:05:13.136Z,1.60
2018-02-01T03:05:47.098Z,1.58
2018-02-01T03:06:21.132Z,1.40
2018-02-01T03:06:55.210Z,2.00
2018-02-01T03:07:29.105Z,1.83
2018-02-01T03:08:03.181Z,1.80
2018-02-01T03:08:37.136Z,1.75
2018-02-01T03:09:10.998Z,2.08
2018-02-01T03:09:44.920Z,1.40
2018-02-01T03:10:18.974Z,1.70
2018-02-01T03:10:53.380Z,1.58
2018-02-01T03:11:27.492Z,1.77
2018-02-01T03:12:01.574Z,1.58
2018-02-01T03:12:35.425Z,2.20
2018-02-01T03:13:09.296Z,2.00
2018-02-01T03:13:43.170Z,1.60
2018-02-01T03:14:17.036Z,2.00
2018-02-01T03:14:51.905Z,1.83
2018-02-01T03:15:25.852Z,2.08
2018-02-01T03:15:59.743Z,2.25
2018-02-01T03:16:33.629Z,2.00
2018-02-01T03:17:07.527Z,1.62
2018-02-01T03:17:41.705Z,2.30
2018-02-01T03:18:15.721Z,2.20
2018-02-01T03:18:49.660Z,2.12
2018-02-01T03:19:23.721Z,1.95
2018-02-01T03:19:57.652Z,2.60
2018-02-01T03:20:31.635Z,2.40
2018-02-01T03:21:06.854Z,2.72
2018-02-01T03:21:41.521Z,2.50
2018-02-01T03:22:15.566Z,2.25
2018-02-01T03:22:50.444Z,2.03
2018-02-01T03:23:24.320Z,2.45
2018-02-01T03:23:58.352Z,2.90
2018-02-01T03:24:32.264Z,2.20
2018-02-01T03:25:06.269Z,2.83
2018-02-01T03:25:40.232Z,2.10
2018-02-01T03:26:16.958Z,2.42
2018-02-01T03:26:50.901Z,2.30
2018-02-01T03:27:24.776Z,2.33
2018-02-01T03:27:58.663Z,2.50
2018-02-01T03:28:32.523Z,2.50
2018-02-01T03:29:06.377Z,2.45
2018-02-01T03:29:40.522Z,2.65
2018-02-01T03:30:14.524Z,2.50
2018-02-01T03:30:48.482Z,2.28
2018-02-01T03:31:22.349Z,2.12
2018-02-01T03:31:56.345Z,2.87
2018-02-01T03:32:30.424Z,2.50
2018-02-01T03:33:04.263Z,2.60
2018-02-01T03:33:38.289Z,2.72
2018-02-01T03:34:12.417Z,2.17
2018-02-01T03:34:46.390Z,2.83
2018-02-01T03:35:20.401Z,2.83
2018-02-01T03:35:54.421Z,2.70
2018-02-01T03:36:28.319Z,2.55
2018-02-01T03:37:02.428Z,2.58
2018-02-01T03:37:36.391Z,2.67
2018-02-01T03:38:10.548Z,2.90
2018-02-01T03:38:44.639Z,2.92
2018-02-01T03:39:18.573Z,2.83
2018-02-01T03:39:52.539Z,2.67
2018-02-01T03:40:26.684Z,3.05
2018-02-01T03:41:00.666Z,3.05
2018-02-01T03:41:34.724Z,2.97
2018-02-01T03:42:08.617Z,2.30
2018-02-01T03:42:42.672Z,2.85
2018-02-01T03:43:16.606Z,3.40
2018-02-01T03:43:50.506Z,2.95
2018-02-01T03:44:24.562Z,2.53
2018-02-01T03:44:58.456Z,2.80
2018-02-01T03:45:32.350Z,2.58
2018-02-01T03:46:06.376Z,3.15
2018-02-01T03:46:40.244Z,2.30
2018-02-01T03:47:14.184Z,2.53
2018-02-01T03:47:48.255Z,2.83
2018-02-01T03:48:22.120Z,2.72
2018-02-01T03:48:56.153Z,2.92
2018-02-01T03:49:30.064Z,2.70
2018-02-01T03:50:04.314Z,2.62
2018-02-01T03:50:38.516Z,3.03
2018-02-01T03:51:12.715Z,3.08
2018-02-01T03:51:46.720Z,3.05
2018-02-01T03:52:20.773Z,2.37
2018-02-01T03:52:54.780Z,2.55
2018-02-01T03:53:28.681Z,2.60
2018-02-01T03:54:02.737Z,2.20
2018-02-01T03:54:36.613Z,2.62
2018-02-01T03:55:10.858Z,2.80
2018-02-01T03:55:44.754Z,2.53
2018-02-01T03:56:18.720Z,2.42
2018-02-01T03:56:52.623Z,2.62
2018-02-01T03:57:26.519Z,2.55
2018-02-01T03:58:00.404Z,2.28
2018-02-01T03:58:34.287Z,2.50
2018-02-01T03:59:08.141Z,2.28
2018-02-01T03:59:42.066Z,2.22
2018-02-01T04:00:16.059Z,2.42
2018-02-01T04:00:50.173Z,2.47
2018-02-01T04:01:24.092Z,2.08
2018-02-01T04:01:58.153Z,3.22
2018-02-01T04:02:32.015Z,2.78
2018-02-01T04:03:05.875Z,2.05
2018-02-01T04:03:39.762Z,2.58
2018-02-01T04:04:13.645Z,2.65
2018-02-01T04:04:47.592Z,2.28
2018-02-01T04:05:21.489Z,2.37
2018-02-01T04:05:55.398Z,2.20
2018-02-01T04:06:29.252Z,2.30
2018-02-01T04:07:03.126Z,2.10
2018-02-01T04:07:37.040Z,2.20
2018-02-01T04:08:11.084Z,2.40
2018-02-01T04:08:45.038Z,3.30
2018-02-01T04:09:19.187Z,2.60
2018-02-01T04:09:53.071Z,2.30
2018-02-01T04:10:27.256Z,2.45
2018-02-01T04:11:01.225Z,2.25
2018-02-01T04:11:35.088Z,2.55
2018-02-01T04:12:08.977Z,2.37
2018-02-01T04:12:42.935Z,2.60
2018-02-01T04:13:16.849Z,2.53
2018-02-01T04:13:50.750Z,2.45
2018-02-01T04:14:24.930Z,2.60
2018-02-01T04:14:58.840Z,2.75
2018-02-01T04:15:32.957Z,2.50
2018-02-01T04:16:07.008Z,2.92
2018-02-01T04:16:40.855Z,2.60
2018-02-01T04:17:14.804Z,2.50
2018-02-01T04:17:48.697Z,2.65
2018-02-01T04:18:22.536Z,2.95
2018-02-01T04:18:56.477Z,2.72
2018-02-01T04:19:30.365Z,2.60
2018-02-01T04:20:04.224Z,3.15
2018-02-01T04:20:38.162Z,2.65
2018-02-01T04:21:12.056Z,2.35
2018-02-01T04:21:46.424Z,2.60
2018-02-01T04:22:20.411Z,2.53
2018-02-01T04:22:54.271Z,2.50
2018-02-01T04:23:28.164Z,2.85
2018-02-01T04:24:02.150Z,2.70
2018-02-01T04:24:36.021Z,2.80
2018-02-01T04:25:09.937Z,2.85
2018-02-01T04:25:43.884Z,2.90
2018-02-01T04:26:17.811Z,2.90
2018-02-01T04:26:51.734Z,3.08
2018-02-01T04:27:25.681Z,2.30
2018-02-01T04:27:59.580Z,2.80
2018-02-01T04:28:33.566Z,3.08
2018-02-01T04:29:07.449Z,2.55
2018-02-01T04:29:41.410Z,2.67
2018-02-01T04:30:15.506Z,2.55
2018-02-01T04:30:49.508Z,2.70
2018-02-01T04:31:23.503Z,2.45
2018-02-01T04:31:57.459Z,2.60
2018-02-01T04:32:32.417Z,2.60
2018-02-01T04:33:06.413Z,2.50
2018-02-01T04:33:40.352Z,3.00
2018-02-01T04:34:14.243Z,2.85
2018-02-01T04:34:48.136Z,2.95
2018-02-01T04:35:22.027Z,3.60
2018-02-01T04:35:55.992Z,3.10
2018-02-01T04:36:30.036Z,2.50
2018-02-01T04:37:03.902Z,2.75
2018-02-01T04:37:37.879Z,3.17
2018-02-01T04:38:11.830Z,2.80
2018-02-01T04:38:45.767Z,3.08
2018-02-01T04:39:19.777Z,2.85
2018-02-01T04:39:53.695Z,2.92
2018-02-01T04:40:27.648Z,2.87
2018-02-01T04:41:01.608Z,2.83
2018-02-01T04:41:35.708Z,3.80
2018-02-01T04:42:09.827Z,3.62
2018-02-01T04:42:43.672Z,2.70
2018-02-01T04:43:17.563Z,2.90
2018-02-01T04:43:51.440Z,3.70
2018-02-01T04:44:25.455Z,3.30
2018-02-01T04:44:59.563Z,3.03
2018-02-01T04:45:33.433Z,2.90
2018-02-01T04:46:07.342Z,2.90
2018-02-01T04:46:41.240Z,3.30
2018-02-01T04:47:15.218Z,3.00
2018-02-01T04:47:49.197Z,3.30
2018-02-01T04:48:30.604Z,3.47
2018-02-01T04:49:04.475Z,3.05
2018-02-01T04:49:38.497Z,2.95
2018-02-01T04:50:12.420Z,3.70
2018-02-01T04:50:46.812Z,3.65
2018-02-01T04:51:20.774Z,3.35
2018-02-01T04:51:54.793Z,3.67
2018-02-01T04:52:28.694Z,3.12
2018-02-01T04:53:02.679Z,3.17
2018-02-01T04:53:36.691Z,2.92
2018-02-01T04:54:10.611Z,3.67
2018-02-01T04:54:44.840Z,3.10
2018-02-01T04:55:18.883Z,3.10
2018-02-01T04:55:52.774Z,3.60
2018-02-01T04:56:27.173Z,3.00
2018-02-01T04:57:01.052Z,3.28
2018-02-01T04:57:34.933Z,3.67
2018-02-01T04:58:08.830Z,3.28
2018-02-01T04:58:42.752Z,3.20
2018-02-01T04:59:16.630Z,3.30
2018-02-01T04:59:50.517Z,3.70
2018-02-01T05:00:24.485Z,3.50
2018-02-01T05:00:58.433Z,3.95
2018-02-01T05:01:32.556Z,4.18
2018-02-01T05:02:06.548Z,3.55
2018-02-01T05:02:40.543Z,3.35
2018-02-01T05:03:14.420Z,3.37
2018-02-01T05:03:48.365Z,3.15
2018-02-01T05:04:22.240Z,3.25
2018-02-01T05:04:56.185Z,3.33
2018-02-01T05:05:30.124Z,3.12
2018-02-01T05:06:04.609Z,3.30
2018-02-01T05:06:38.460Z,3.40
2018-02-01T05:07:12.365Z,3.40
2018-02-01T05:07:47.242Z,3.35
2018-02-01T05:08:21.233Z,2.90
2018-02-01T05:08:55.196Z,3.70
2018-02-01T05:09:29.411Z,3.42
2018-02-01T05:10:03.513Z,3.50
2018-02-01T05:10:37.443Z,3.80
2018-02-01T05:11:11.309Z,3.40
2018-02-01T05:11:46.136Z,3.60
2018-02-01T05:12:19.985Z,3.20
2018-02-01T05:12:54.053Z,3.37
2018-02-01T05:13:28.024Z,3.30
2018-02-01T05:14:01.899Z,3.70
2018-02-01T05:14:35.900Z,2.95
2018-02-01T05:15:09.894Z,3.45
2018-02-01T05:15:43.744Z,3.42
2018-02-01T05:16:17.608Z,3.30
2018-02-01T05:16:51.614Z,3.53
2018-02-01T05:17:25.707Z,3.58
2018-02-01T05:17:59.606Z,3.97
2018-02-01T05:18:33.634Z,3.95
2018-02-01T05:19:07.608Z,3.55
2018-02-01T05:19:41.517Z,3.08
2018-02-01T05:20:15.390Z,3.55
2018-02-01T05:20:49.301Z,3.00
2018-02-01T05:21:23.249Z,4.03
2018-02-01T05:21:57.205Z,3.60
2018-02-01T05:22:31.176Z,3.45
2018-02-01T05:23:05.179Z,3.45
2018-02-01T05:23:39.069Z,3.60
2018-02-01T05:24:12.985Z,3.53
2018-02-01T05:24:46.867Z,4.10
2018-02-01T05:25:20.795Z,3.55
2018-02-01T05:25:54.716Z,3.60
2018-02-01T05:26:28.625Z,2.97
2018-02-01T05:27:02.481Z,3.70
2018-02-01T05:27:36.428Z,3.85
2018-02-01T05:28:10.288Z,3.25
2018-02-01T05:28:44.274Z,4.18
2018-02-01T05:29:18.189Z,2.85
2018-02-01T05:29:52.045Z,3.25
2018-02-01T05:30:26.003Z,3.20
2018-02-01T05:30:59.976Z,3.72
2018-02-01T05:31:34.550Z,3.50
2018-02-01T05:32:08.428Z,2.85
2018-02-01T05:32:42.432Z,3.25
2018-02-01T05:33:16.478Z,3.12
2018-02-01T05:33:50.418Z,3.03
2018-02-01T05:34:24.546Z,3.17
2018-02-01T05:34:58.473Z,3.00
2018-02-01T05:35:32.586Z,3.20
2018-02-01T05:36:06.671Z,3.12
2018-02-01T05:36:40.550Z,3.05
2018-02-01T05:37:14.567Z,3.40
2018-02-01T05:37:48.748Z,2.90
2018-02-01T05:38:22.811Z,3.20
2018-02-01T05:38:56.748Z,3.53
2018-02-01T05:39:30.697Z,3.70
2018-02-01T05:40:04.654Z,3.22
2018-02-01T05:40:38.539Z,3.00
2018-02-01T05:41:12.471Z,2.97
2018-02-01T05:41:46.549Z,2.55
2018-02-01T05:42:20.639Z,2.72
2018-02-01T05:42:54.805Z,3.00
2018-02-01T05:43:28.946Z,3.50
2018-02-01T05:44:02.905Z,2.95
2018-02-01T05:44:37.700Z,2.70
2018-02-01T05:45:12.627Z,3.55
2018-02-01T05:45:48.164Z,3.70
2018-02-01T05:46:24.180Z,3.08
2018-02-01T05:46:59.169Z,2.92
2018-02-01T05:47:33.106Z,2.50
2018-02-01T05:48:07.009Z,3.08
2018-02-01T05:48:40.920Z,2.53
2018-02-01T05:49:14.855Z,3.25
2018-02-01T05:49:48.966Z,2.78
2018-02-01T05:50:22.843Z,2.72
2018-02-01T05:50:57.066Z,2.95
2018-02-01T05:51:31.318Z,3.05
2018-02-01T05:52:05.350Z,3.30
2018-02-01T05:52:39.446Z,2.90
2018-02-01T05:53:13.473Z,2.65
2018-02-01T05:53:47.885Z,3.00
2018-02-01T05:54:21.842Z,3.00
2018-02-01T05:54:55.850Z,2.55
2018-02-01T05:55:29.794Z,2.70
2018-02-01T05:56:03.718Z,3.35
2018-02-01T05:56:37.646Z,2.97
2018-02-01T05:57:11.587Z,3.62
2018-02-01T05:57:45.593Z,3.42
2018-02-01T05:58:19.488Z,3.30
2018-02-01T05:58:53.568Z,3.42
2018-02-01T05:59:27.527Z,2.85
2018-02-01T06:00:01.441Z,3.22
2018-02-01T06:00:35.424Z,2.78
2018-02-01T06:01:09.337Z,2.87
2018-02-01T06:01:44.007Z,2.92
2018-02-01T06:02:18.068Z,3.30
2018-02-01T06:02:52.025Z,3.00
2018-02-01T06:03:26.998Z,3.40
2018-02-01T06:04:00.990Z,2.92
2018-02-01T06:04:35.146Z,2.90
2018-02-01T06:05:09.545Z,3.20
2018-02-01T06:05:43.427Z,2.97
2018-02-01T06:06:17.743Z,3.40
2018-02-01T06:06:51.684Z,2.75
2018-02-01T06:07:25.704Z,3.50
2018-02-01T06:07:59.612Z,3.05
2018-02-01T06:08:33.552Z,3.58
2018-02-01T06:09:07.453Z,3.15
2018-02-01T06:09:41.390Z,2.37
2018-02-01T06:10:15.397Z,3.10
2018-02-01T06:10:49.426Z,3.30
2018-02-01T06:11:23.338Z,3.17
2018-02-01T06:11:57.260Z,2.90
2018-02-01T06:12:31.299Z,3.22
2018-02-01T06:13:05.165Z,2.72
2018-02-01T06:13:39.302Z,3.12
2018-02-01T06:14:13.574Z,3.05
2018-02-01T06:14:47.775Z,3.75
2018-02-01T06:15:21.770Z,2.97
2018-02-01T06:15:56.013Z,3.20
2018-02-01T06:16:29.932Z,3.00
2018-02-01T06:17:04.191Z,3.30
2018-02-01T06:17:38.348Z,2.80
2018-02-01T06:18:12.319Z,3.15
2018-02-01T06:18:46.293Z,3.45
2018-02-01T06:19:20.141Z,3.35
2018-02-01T06:19:54.183Z,3.60
2018-02-01T06:20:28.269Z,3.33
2018-02-01T06:21:02.120Z,3.83
2018-02-01T06:21:36.005Z,3.40
2018-02-01T06:22:10.752Z,3.00
2018-02-01T06:22:44.713Z,3.30
2018-02-01T06:23:18.878Z,3.62
2018-02-01T06:23:52.765Z,3.87
2018-02-01T06:24:26.640Z,3.53
2018-02-01T06:25:03.047Z,3.12
2018-02-01T06:25:37.101Z,4.35
2018-02-01T06:26:11.108Z,3.70
2018-02-01T06:26:45.164Z,3.53
2018-02-01T06:27:19.118Z,2.95
2018-02-01T06:27:53.094Z,3.85
2018-02-01T06:28:27.001Z,3.10
2018-02-01T06:29:01.091Z,3.05
2018-02-01T06:29:35.042Z,3.35
2018-02-01T06:30:09.378Z,3.40
2018-02-01T06:30:43.293Z,3.05
2018-02-01T06:31:18.012Z,3.20
2018-02-01T06:31:52.019Z,2.97
2018-02-01T06:32:26.080Z,4.10
2018-02-01T06:33:00.464Z,3.10
2018-02-01T06:33:34.603Z,3.05
2018-02-01T06:34:08.849Z,3.40
2018-02-01T06:34:43.076Z,3.42
2018-02-01T06:35:20.020Z,2.85
2018-02-01T06:35:54.483Z,3.58
2018-02-01T06:36:29.324Z,3.17
2018-02-01T06:37:03.395Z,3.33
2018-02-01T06:37:38.506Z,3.87
2018-02-01T06:38:12.673Z,4.78
2018-02-01T06:38:47.155Z,3.60
2018-02-01T06:39:23.117Z,3.92
2018-02-01T06:39:57.091Z,3.22
2018-02-01T06:40:31.364Z,3.20
2018-02-01T06:41:05.246Z,4.28
2018-02-01T06:41:39.333Z,3.45
2018-02-01T06:42:13.424Z,4.12
2018-02-01T06:42:47.475Z,4.12
2018-02-01T06:43:21.694Z,3.97
2018-02-01T06:43:56.057Z,3.95
2018-02-01T06:44:33.037Z,3.70
2018-02-01T06:45:06.956Z,4.40
2018-02-01T06:45:40.876Z,3.85
2018-02-01T06:46:15.274Z,3.67
2018-02-01T06:46:50.585Z,4.60
2018-02-01T06:47:24.589Z,4.78
2018-02-01T06:47:58.546Z,3.87
2018-02-01T06:48:32.568Z,3.80
2018-02-01T06:49:07.229Z,4.85
2018-02-01T06:49:41.888Z,4.57
2018-02-01T06:50:15.888Z,8.40
2018-02-01T06:50:49.786Z,14.63
2018-02-01T06:51:24.501Z,5.37
2018-02-01T06:51:59.416Z,3.60
2018-02-01T06:52:33.428Z,5.47
2018-02-01T06:53:07.408Z,4.03
2018-02-01T06:53:41.285Z,4.50
2018-02-01T06:54:17.354Z,4.35
2018-02-01T06:54:51.726Z,4.10
2018-02-01T06:55:25.651Z,3.80
2018-02-01T06:55:59.947Z,4.25
2018-02-01T06:56:33.925Z,4.60
2018-02-01T06:57:07.889Z,4.20
2018-02-01T06:57:41.855Z,4.20
2018-02-01T06:58:15.715Z,3.90
2018-02-01T06:58:49.634Z,4.12
2018-02-01T06:59:23.559Z,4.80
2018-02-01T06:59:57.666Z,4.68
2018-02-01T07:00:50.500Z,5.05
2018-02-01T07:01:29.395Z,6.93
2018-02-01T07:02:03.449Z,6.03
2018-02-01T07:02:38.842Z,8.15
2018-02-01T07:03:15.564Z,8.45
2018-02-01T07:03:49.572Z,5.72
2018-02-01T07:04:23.573Z,5.12
2018-02-01T07:04:58.634Z,7.60
2018-02-01T07:05:32.881Z,5.97
2018-02-01T07:06:06.994Z,6.20
2018-02-01T07:06:40.997Z,5.78
2018-02-01T07:07:16.914Z,4.97
2018-02-01T07:07:52.818Z,5.03
2018-02-01T07:08:27.541Z,5.40
2018-02-01T07:09:05.760Z,4.20
2018-02-01T07:09:40.423Z,6.03
2018-02-01T07:10:14.981Z,4.25
2018-02-01T07:10:51.764Z,7.28
2018-02-01T07:11:27.072Z,4.80
2018-02-01T07:12:02.924Z,5.53
2018-02-01T07:12:38.799Z,4.93
2018-02-01T07:13:12.982Z,4.95
2018-02-01T07:13:47.120Z,3.60
2018-02-01T07:14:24.229Z,3.97
2018-02-01T07:14:58.458Z,6.70
2018-02-01T07:15:35.872Z,3.62
2018-02-01T07:16:10.527Z,5.53
2018-02-01T07:16:46.994Z,7.78
2018-02-01T07:17:22.809Z,5.87
2018-02-01T07:17:59.224Z,8.07
2018-02-01T07:18:35.212Z,7.68
2018-02-01T07:19:11.894Z,5.05
2018-02-01T07:19:48.939Z,3.75
2018-02-01T07:20:25.226Z,3.97
2018-02-01T07:21:03.035Z,5.05
2018-02-01T07:21:39.061Z,7.90
2018-02-01T07:22:17.404Z,7.43
2018-02-01T07:22:51.342Z,6.70
2018-02-01T07:23:27.858Z,6.32
2018-02-01T07:24:03.087Z,9.27
2018-02-01T07:24:36.934Z,9.88
2018-02-01T07:25:10.906Z,8.32
2018-02-01T07:25:44.893Z,6.40
2018-02-01T07:26:18.972Z,5.75
2018-02-01T07:26:52.880Z,4.90
2018-02-01T07:27:27.287Z,4.68
2018-02-01T07:28:02.508Z,4.68
2018-02-01T07:28:37.476Z,6.50
2018-02-01T07:29:11.729Z,5.53
2018-02-01T07:29:45.628Z,6.95
2018-02-01T07:30:19.637Z,9.75
2018-02-01T07:30:53.684Z,11.70
2018-02-01T07:31:27.745Z,9.70
2018-02-01T07:32:01.740Z,12.48
2018-02-01T07:32:35.781Z,8.93
2018-02-01T07:33:09.876Z,8.80
2018-02-01T07:33:44.011Z,10.02
2018-02-01T07:34:17.872Z,8.40
2018-02-01T07:34:52.859Z,5.22
2018-02-01T07:35:26.732Z,15.02